Time;durP1;ratioP1;P1;durP2;ratioP2;P2;SDS_P1;SDS_P2;PMS_P1;PMS_P2;Temp;Humidity;BMP_temperature;BMP_pressure;BME280_temperature;BME280_humidity;BME280_pressure;Samples;Min_cycle;Max_cycle;Signal;HPM_P1;HPM_P2
2023/06/10 00:00:41;;;;;;;14.00;8.20;;;;;;;18.62;66.32;100454.64;220624;1266;140468;-89
2023/06/10 00:05:41;;;;;;;16.60;8.60;;;;;;;18.53;67.60;100451.96;221130;1264;138222;-89
2023/06/10 00:10:42;;;;;;;12.00;8.40;;;;;;;18.46;68.27;100452.75;220833;1267;140805;-90
2023/06/10 00:15:42;;;;;;;16.30;9.20;;;;;;;18.41;68.88;100460.33;221205;1268;138041;-90
2023/06/10 00:20:43;;;;;;;13.80;8.70;;;;;;;18.33;69.87;100458.26;220594;1263;140412;-90
2023/06/10 00:25:43;;;;;;;15.10;8.70;;;;;;;18.25;70.94;100462.69;221369;1268;138123;-89
2023/06/10 00:30:44;;;;;;;12.60;8.10;;;;;;;18.19;71.40;100465.44;220785;1267;140471;-89
2023/06/10 00:35:44;;;;;;;15.30;8.50;;;;;;;18.13;72.43;100468.33;221251;1267;138584;-90
2023/06/10 00:40:45;;;;;;;16.80;8.40;;;;;;;18.07;73.13;100465.73;220874;1264;140016;-90
2023/06/10 00:45:45;;;;;;;13.60;7.30;;;;;;;18.01;73.80;100465.23;220975;1264;138570;-90
2023/06/10 00:50:47;;;;;;;20.40;9.20;;;;;;;17.95;74.10;100464.61;220773;1264;140729;-90
2023/06/10 00:55:47;;;;;;;16.90;8.20;;;;;;;17.89;74.94;100464.26;221387;1264;139053;-90
2023/06/10 01:00:49;;;;;;;12.00;7.80;;;;;;;17.82;75.38;100459.77;220856;1264;141548;-90
2023/06/10 01:05:58;;;;;;;15.80;7.00;;;;;;;17.77;75.91;100460.58;221321;1264;138951;-91
2023/06/10 01:11:01;;;;;;;12.90;7.80;;;;;;;17.73;76.59;100466.21;220867;1267;141032;-89
2023/06/10 01:16:02;;;;;;;13.90;7.00;;;;;;;17.67;77.08;100468.30;221715;1264;98184;-90
2023/06/10 01:21:03;;;;;;;19.00;8.80;;;;;;;17.62;77.46;100473.64;220699;1264;140180;-90
2023/06/10 01:26:10;;;;;;;12.20;7.80;;;;;;;17.56;77.49;100473.48;221439;1264;139065;-90
2023/06/10 01:31:23;;;;;;;14.60;7.70;;;;;;;17.51;78.61;100480.66;220903;1264;140685;-89
2023/06/10 01:36:24;;;;;;;12.70;7.10;;;;;;;17.44;79.07;100488.41;221322;1266;138994;-90
2023/06/10 01:41:25;;;;;;;13.30;7.30;;;;;;;17.37;80.03;100491.98;220823;1264;141795;-88
2023/06/10 01:46:26;;;;;;;15.10;7.00;;;;;;;17.34;80.18;100489.17;221467;1267;97793;-89
2023/06/10 01:51:26;;;;;;;14.70;7.70;;;;;;;17.30;80.49;100490.27;220937;1264;140431;-90
2023/06/10 01:56:26;;;;;;;12.60;7.00;;;;;;;17.26;81.09;100490.55;221439;1267;139131;-87
2023/06/10 02:01:28;;;;;;;15.00;7.00;;;;;;;17.22;81.12;100492.45;220913;1267;140683;-90
2023/06/10 02:06:29;;;;;;;11.70;7.40;;;;;;;17.19;81.04;100495.52;221307;1264;139596;-89
2023/06/10 02:11:29;;;;;;;13.40;7.60;;;;;;;17.16;81.50;100498.43;220861;1267;140850;-90
2023/06/10 02:16:31;;;;;;;13.40;6.80;;;;;;;17.12;81.52;100500.06;221526;1264;96742;-89
2023/06/10 02:21:31;;;;;;;12.20;7.10;;;;;;;17.08;81.70;100504.25;220785;1264;140973;-90
2023/06/10 02:26:31;;;;;;;14.40;6.90;;;;;;;17.04;81.86;100504.55;221499;1264;138927;-90
2023/06/10 02:31:35;;;;;;;13.70;7.40;;;;;;;16.98;81.92;100509.71;220760;1264;141792;-89
2023/06/10 02:36:35;;;;;;;18.30;7.70;;;;;;;16.93;82.46;100511.23;221233;1264;139104;-88
2023/06/10 02:41:36;;;;;;;13.40;7.60;;;;;;;16.90;82.43;100518.09;220759;1264;140716;-90
2023/06/10 02:46:37;;;;;;;12.80;7.20;;;;;;;16.91;81.36;100518.08;221175;1263;97699;-90
2023/06/10 02:51:37;;;;;;;13.20;7.50;;;;;;;16.95;80.07;100521.11;220725;1264;141009;-91
2023/06/10 02:56:41;;;;;;;15.60;7.60;;;;;;;17.04;79.27;100517.75;221218;1263;138734;-90
2023/06/10 03:01:42;;;;;;;14.90;7.50;;;;;;;17.11;78.15;100521.06;220665;1264;140852;-91
2023/06/10 03:06:42;;;;;;;14.40;7.80;;;;;;;17.14;77.74;100526.98;221197;1264;138989;-90
2023/06/10 03:11:43;;;;;;;13.00;8.50;;;;;;;17.14;78.04;100529.27;220518;1264;140711;-87
2023/06/10 03:16:44;;;;;;;15.80;7.60;;;;;;;17.09;78.82;100529.67;221456;1263;97867;-88
2023/06/10 03:21:44;;;;;;;13.00;8.20;;;;;;;17.03;78.96;100535.78;220593;1264;140773;-87
2023/06/10 03:26:46;;;;;;;13.90;7.70;;;;;;;16.99;79.26;100542.35;221037;1265;139800;-88
2023/06/10 03:31:46;;;;;;;12.10;7.70;;;;;;;16.97;79.03;100544.30;220532;1264;140930;-89
2023/06/10 03:36:46;;;;;;;18.00;7.70;;;;;;;16.97;78.69;100545.08;221035;1264;139116;-87
2023/06/10 03:41:47;;;;;;;14.40;7.70;;;;;;;16.99;78.48;100558.16;220630;1263;140105;-89
2023/06/10 03:46:47;;;;;;;12.60;7.90;;;;;;;16.98;79.24;100569.37;221239;1264;98385;-89
2023/06/10 03:51:47;;;;;;;15.80;8.30;;;;;;;17.00;80.51;100575.63;220460;1264;142572;-88
2023/06/10 03:56:48;;;;;;;13.90;8.10;;;;;;;17.00;81.21;100578.71;220935;1264;139259;-89
2023/06/10 04:01:48;;;;;;;13.80;7.70;;;;;;;17.02;81.16;100582.20;220760;1264;142648;-90
2023/06/10 04:06:49;;;;;;;15.90;8.80;;;;;;;17.04;80.85;100598.23;221094;1264;139079;-90
2023/06/10 04:11:49;;;;;;;12.70;7.40;;;;;;;17.08;81.13;100612.15;220645;1264;142392;-90
2023/06/10 04:16:50;;;;;;;15.20;7.70;;;;;;;17.15;80.73;100626.14;221298;1264;97914;-89
2023/06/10 04:21:50;;;;;;;14.20;8.10;;;;;;;17.24;80.86;100627.84;220518;1264;140850;-89
2023/06/10 04:26:51;;;;;;;14.80;7.50;;;;;;;17.35;80.31;100636.29;221349;1264;139215;-89
2023/06/10 04:31:52;;;;;;;14.70;7.20;;;;;;;17.47;79.70;100643.46;220695;1264;141345;-92
2023/06/10 04:36:53;;;;;;;14.80;7.20;;;;;;;17.59;78.66;100640.77;221209;1264;139611;-91
2023/06/10 04:41:53;;;;;;;13.10;7.10;;;;;;;17.72;78.25;100640.17;220702;1267;140823;-91
2023/06/10 04:46:55;;;;;;;13.10;7.00;;;;;;;17.86;77.34;100648.63;221233;1264;96969;-90
2023/06/10 04:51:56;;;;;;;14.60;6.40;;;;;;;17.98;76.62;100656.55;220850;1264;140527;-90
2023/06/10 04:56:57;;;;;;;16.00;7.30;;;;;;;18.11;75.99;100665.90;221126;1264;139430;-92
2023/06/10 05:01:58;;;;;;;13.70;7.30;;;;;;;18.24;75.50;100673.02;220850;1264;141415;-93
2023/06/10 05:06:59;;;;;;;15.80;6.70;;;;;;;18.41;74.64;100681.84;221432;1264;138895;-91
2023/06/10 05:11:59;;;;;;;21.40;6.80;;;;;;;18.59;73.58;100690.78;220970;1263;141354;-92
2023/06/10 05:16:59;;;;;;;12.10;6.70;;;;;;;18.82;72.77;100692.90;221342;1263;138997;-88
2023/06/10 05:22:00;;;;;;;12.00;6.10;;;;;;;19.11;71.90;100698.58;221119;1264;140442;-89
2023/06/10 05:27:00;;;;;;;18.60;6.50;;;;;;;19.46;70.72;100699.87;221368;1264;138806;-91
2023/06/10 05:32:03;;;;;;;15.00;6.90;;;;;;;19.85;69.86;100705.90;220939;1263;140938;-89
2023/06/10 05:37:04;;;;;;;17.10;6.30;;;;;;;20.31;68.49;100706.27;221401;1264;138994;-91
2023/06/10 05:42:06;;;;;;;13.20;6.20;;;;;;;20.81;67.30;100712.38;220867;1264;140842;-91
2023/06/10 05:47:07;;;;;;;11.90;5.90;;;;;;;21.38;66.20;100719.22;221373;1267;138540;-88
2023/06/10 05:52:07;;;;;;;14.40;5.90;;;;;;;21.92;64.81;100720.02;220836;1267;140492;-90
2023/06/10 05:57:08;;;;;;;12.40;6.20;;;;;;;22.29;63.65;100718.73;221300;1264;138159;-91
2023/06/10 06:02:08;;;;;;;14.10;6.40;;;;;;;22.70;62.53;100715.77;220953;1263;140359;-90
2023/06/10 06:07:09;;;;;;;11.50;6.10;;;;;;;23.15;60.96;100716.22;221060;1263;138314;-88
2023/06/10 06:12:10;;;;;;;11.90;5.90;;;;;;;23.27;60.40;100715.80;220701;1263;140088;-94
2023/06/10 06:17:12;;;;;;;15.10;6.00;;;;;;;23.71;59.74;100715.43;221605;1264;138543;-89
2023/06/10 06:22:13;;;;;;;14.90;6.00;;;;;;;23.91;58.01;100709.83;221012;1264;140839;-86
2023/06/10 06:27:13;;;;;;;13.80;6.00;;;;;;;24.14;57.45;100710.46;221498;1264;137932;-92
2023/06/10 06:32:13;;;;;;;13.60;6.20;;;;;;;24.19;56.18;100710.42;220750;1267;140306;-91
2023/06/10 06:37:14;;;;;;;16.30;5.80;;;;;;;24.26;55.34;100710.70;220986;1264;286003;-91
2023/06/10 06:42:14;;;;;;;12.80;5.60;;;;;;;24.50;55.24;100715.67;220932;1264;139982;-94
2023/06/10 06:47:17;;;;;;;13.70;5.50;;;;;;;24.93;53.23;100722.19;221326;1264;138169;-88
2023/06/10 06:52:19;;;;;;;15.20;6.10;;;;;;;24.98;51.94;100724.79;220723;1265;139418;-89
2023/06/10 06:57:19;;;;;;;11.90;5.80;;;;;;;25.15;51.65;100725.52;221157;1265;137913;-89
2023/06/10 07:02:20;;;;;;;11.20;5.50;;;;;;;25.49;51.10;100724.09;220482;1264;139100;-91
2023/06/10 07:07:20;;;;;;;12.20;5.50;;;;;;;25.93;50.58;100732.66;221161;1264;138113;-89
2023/06/10 07:12:23;;;;;;;11.20;5.20;;;;;;;26.01;49.71;100733.66;220533;1265;140443;-88
2023/06/10 07:17:24;;;;;;;13.20;5.20;;;;;;;26.54;49.10;100736.90;220885;1265;138075;-90
2023/06/10 07:22:24;;;;;;;10.10;5.60;;;;;;;26.63;47.57;100737.66;220484;1265;138985;-88
2023/06/10 07:27:25;;;;;;;16.30;5.80;;;;;;;26.64;47.72;100733.91;220741;1264;137981;-92
2023/06/10 07:32:25;;;;;;;12.00;6.30;;;;;;;27.17;47.28;100733.75;220516;1264;140042;-89
2023/06/10 07:37:26;;;;;;;10.70;5.20;;;;;;;27.62;45.96;100730.63;221209;1265;138864;-90
2023/06/10 07:42:26;;;;;;;13.30;5.70;;;;;;;27.95;45.64;100731.34;220547;1267;140330;-87
2023/06/10 07:47:27;;;;;;;12.50;5.80;;;;;;;28.20;44.79;100727.18;220762;1264;138687;-87
2023/06/10 07:52:28;;;;;;;12.50;5.80;;;;;;;28.58;44.26;100723.79;220645;1265;139728;-89
2023/06/10 07:57:31;;;;;;;13.70;5.90;;;;;;;29.04;43.66;100727.52;220704;1264;137910;-87
2023/06/10 08:02:32;;;;;;;13.20;5.40;;;;;;;29.09;41.48;100734.29;220721;1264;139970;-88
2023/06/10 08:07:32;;;;;;;11.30;4.90;;;;;;;29.22;41.62;100731.77;221084;1264;138361;-88
2023/06/10 08:12:33;;;;;;;12.80;5.40;;;;;;;29.98;41.30;100727.13;220459;1264;140023;-90
2023/06/10 08:17:34;;;;;;;9.90;4.90;;;;;;;30.42;39.73;100727.34;221085;1267;138151;-88
2023/06/10 08:22:35;;;;;;;8.60;4.40;;;;;;;30.62;38.48;100729.85;220635;1264;140181;-87
2023/06/10 08:27:35;;;;;;;13.20;5.50;;;;;;;31.08;37.17;100733.83;221199;1264;137922;-91
2023/06/10 08:32:36;;;;;;;9.70;4.90;;;;;;;31.18;34.96;100731.92;220534;1264;140968;-89
2023/06/10 08:37:36;;;;;;;14.40;5.80;;;;;;;31.33;34.36;100732.24;221162;1264;138101;-90
2023/06/10 08:42:43;;;;;;;11.00;4.40;;;;;;;31.72;32.94;100727.13;220353;1267;140335;-89
2023/06/10 08:47:46;;;;;;;8.50;4.40;;;;;;;32.15;32.88;100728.83;220921;1264;138645;-88
2023/06/10 08:52:50;;;;;;;11.20;4.90;;;;;;;32.26;30.38;100734.42;221200;1264;140573;-91
2023/06/10 08:57:50;;;;;;;8.40;4.50;;;;;;;31.84;29.57;100730.27;221473;1264;138169;-91
2023/06/10 09:02:51;;;;;;;10.20;5.10;;;;;;;32.04;30.89;100736.84;220774;1264;139977;-88
2023/06/10 09:07:52;;;;;;;10.00;5.10;;;;;;;32.54;31.79;100731.38;221069;1264;139000;-89
2023/06/10 09:12:53;;;;;;;10.30;4.90;;;;;;;33.37;31.16;100727.77;220703;1264;139291;-89
2023/06/10 09:17:53;;;;;;;12.50;5.40;;;;;;;33.91;31.44;100736.72;221194;1264;138691;-89
2023/06/10 09:22:54;;;;;;;9.40;5.20;;;;;;;33.99;30.31;100737.29;220889;1263;139674;-89
2023/06/10 09:27:55;;;;;;;9.30;5.30;;;;;;;33.99;31.11;100740.79;221350;1267;137724;-91
2023/06/10 09:32:58;;;;;;;11.50;5.60;;;;;;;34.33;31.39;100738.69;220839;1263;140700;-89
2023/06/10 09:38:00;;;;;;;8.90;5.20;;;;;;;34.31;30.28;100733.68;221563;1267;138581;-93
2023/06/10 09:43:00;;;;;;;7.90;5.20;;;;;;;34.62;29.51;100731.18;220777;1266;141155;-90
2023/06/10 09:48:01;;;;;;;8.00;5.20;;;;;;;34.93;28.51;100737.15;221595;1264;137055;-92
2023/06/10 09:53:04;;;;;;;9.80;5.30;;;;;;;34.98;27.70;100733.34;220933;1267;139712;-94
2023/06/10 09:58:05;;;;;;;12.40;5.70;;;;;;;34.82;27.88;100731.40;221634;1264;97990;-88
2023/06/10 10:03:06;;;;;;;10.70;5.90;;;;;;;34.58;28.04;100726.07;220514;1265;139397;-90
2023/06/10 10:08:07;;;;;;;10.50;6.00;;;;;;;34.41;29.25;100724.07;221276;1264;138212;-92
2023/06/10 10:13:07;;;;;;;11.00;5.50;;;;;;;35.15;29.66;100723.48;220780;1264;139105;-87
2023/06/10 10:18:10;;;;;;;12.00;5.50;;;;;;;35.77;28.40;100724.69;221271;1265;138440;-90
2023/06/10 10:23:15;;;;;;;10.00;5.00;;;;;;;36.15;27.80;100718.98;220794;1266;140116;-92
2023/06/10 10:28:20;;;;;;;10.50;5.20;;;;;;;36.54;27.10;100716.04;221499;1267;99933;-89
2023/06/10 10:33:28;;;;;;;11.80;5.40;;;;;;;36.94;26.11;100717.98;220678;1264;140686;-91
2023/06/10 10:38:29;;;;;;;9.80;4.90;;;;;;;36.65;25.05;100719.73;221391;1267;138387;-88
2023/06/10 10:43:30;;;;;;;12.30;6.70;;;;;;;36.57;25.34;100715.27;220878;1267;139877;-89
2023/06/10 10:48:37;;;;;;;10.30;4.80;;;;;;;36.55;25.50;100711.13;221284;1265;138807;-88
2023/06/10 10:53:39;;;;;;;8.80;5.70;;;;;;;36.88;25.92;100705.84;220762;1264;139935;-88
2023/06/10 10:58:40;;;;;;;12.00;5.20;;;;;;;37.03;25.32;100701.09;221352;1265;97887;-92
2023/06/10 11:03:47;;;;;;;9.80;5.00;;;;;;;37.17;25.67;100704.89;221049;1264;140573;-87
2023/06/10 11:08:49;;;;;;;13.40;5.80;;;;;;;36.79;24.88;100707.89;221318;1265;140279;-88
2023/06/10 11:14:02;;;;;;;7.90;4.70;;;;;;;36.01;24.48;100705.86;221082;1264;138552;-88
2023/06/10 11:19:02;;;;;;;10.50;5.10;;;;;;;35.73;25.09;100702.88;220855;1264;141138;-89
2023/06/10 11:24:12;;;;;;;9.90;5.40;;;;;;;36.28;25.37;100699.41;221383;1264;138269;-92
2023/06/10 11:29:15;;;;;;;9.30;5.00;;;;;;;36.05;25.10;100703.00;220864;1264;140422;-88
2023/06/10 11:34:23;;;;;;;9.40;5.20;;;;;;;35.91;24.54;100697.02;221216;1264;98021;-86
2023/06/10 11:39:24;;;;;;;10.90;5.90;;;;;;;35.75;24.90;100696.97;220806;1264;140314;-88
2023/06/10 11:44:27;;;;;;;11.30;4.90;;;;;;;35.90;24.92;100696.67;221399;1267;138061;-87
2023/06/10 11:49:28;;;;;;;7.50;4.40;;;;;;;35.93;24.41;100703.60;220794;1266;140415;-90
2023/06/10 11:54:28;;;;;;;9.70;4.90;;;;;;;35.71;23.85;100694.84;221225;1267;137989;-86
2023/06/10 11:59:30;;;;;;;9.40;4.70;;;;;;;35.73;24.53;100693.14;220607;1266;140244;-89
2023/06/10 12:04:30;;;;;;;8.50;5.00;;;;;;;35.75;24.19;100693.06;221556;1265;97924;-90
2023/06/10 12:09:32;;;;;;;10.30;5.00;;;;;;;35.77;23.94;100690.89;220651;1265;140833;-91
2023/06/10 12:14:58;;;;;;;8.90;5.00;;;;;;;35.51;23.21;100693.73;221221;1264;138471;-88
2023/06/10 12:20:01;;;;;;;7.80;4.00;;;;;;;35.35;23.40;100686.11;220810;1264;139497;-90
2023/06/10 12:25:04;;;;;;;10.00;5.00;;;;;;;35.52;23.69;100684.55;221372;1265;138521;-89
2023/06/10 12:30:05;;;;;;;10.40;4.40;;;;;;;35.17;23.26;100690.23;220708;1267;141537;-90
2023/06/10 12:35:07;;;;;;;7.80;4.50;;;;;;;34.67;23.05;100688.81;221249;1267;138573;-87
2023/06/10 12:40:11;;;;;;;12.20;5.00;;;;;;;34.10;23.55;100684.77;220809;1264;140392;-94
2023/06/10 12:45:12;;;;;;;;;;;;;;;33.99;23.74;100678.30;221381;1266;138118;-87
2023/06/10 12:50:13;;;;;;;9.10;5.30;;;;;;;33.94;24.24;100677.30;220641;1267;126274;-92
2023/06/10 12:55:14;;;;;;;6.70;4.00;;;;;;;33.74;24.71;100672.41;221225;1263;138204;-88
2023/06/10 13:00:15;;;;;;;10.60;4.60;;;;;;;33.72;24.94;100666.92;220700;1267;140945;-90
2023/06/10 13:05:16;;;;;;;7.70;4.40;;;;;;;33.78;25.06;100662.11;221234;1264;138314;-89
2023/06/10 13:10:18;;;;;;;7.70;3.90;;;;;;;33.70;25.17;100662.84;220678;1264;139011;-89
2023/06/10 13:15:18;;;;;;;11.70;5.10;;;;;;;33.67;24.93;100662.13;221206;1266;140193;-88
2023/06/10 13:20:20;;;;;;;11.90;4.80;;;;;;;33.55;25.07;100665.90;220667;1264;141747;-88
2023/06/10 13:25:20;;;;;;;7.90;4.10;;;;;;;33.55;25.10;100666.54;221384;1264;138436;-88
2023/06/10 13:30:21;;;;;;;7.90;3.80;;;;;;;33.46;24.33;100665.23;220672;1268;139837;-91
2023/06/10 13:35:21;;;;;;;10.60;3.90;;;;;;;33.20;24.71;100668.18;221293;1267;138977;-89
2023/06/10 13:40:22;;;;;;;8.30;3.90;;;;;;;33.16;25.05;100663.59;220885;1264;140144;-88
2023/06/10 13:45:22;;;;;;;9.00;4.10;;;;;;;33.40;24.79;100661.23;221473;1264;138353;-86
2023/06/10 13:50:23;;;;;;;7.10;3.60;;;;;;;33.45;24.56;100662.50;220928;1263;141083;-89
2023/06/10 13:55:24;;;;;;;7.50;4.00;;;;;;;33.19;24.59;100657.71;221491;1266;138164;-92
2023/06/10 14:00:27;;;;;;;12.50;4.00;;;;;;;33.08;24.80;100650.62;220723;1264;141667;-86
2023/06/10 14:05:27;;;;;;;8.90;4.00;;;;;;;33.17;24.83;100655.70;221371;1265;138774;-89
2023/06/10 14:10:28;;;;;;;8.00;3.60;;;;;;;33.20;24.56;100651.84;220903;1264;139967;-92
2023/06/10 14:15:28;;;;;;;9.90;3.80;;;;;;;33.00;24.48;100655.94;221181;1263;138361;-87
2023/06/10 14:20:31;;;;;;;6.70;3.50;;;;;;;32.36;24.26;100651.16;220994;1266;140430;-90
2023/06/10 14:25:31;;;;;;;8.60;4.00;;;;;;;32.00;25.12;100650.17;221430;1266;138174;-90
2023/06/10 14:30:31;;;;;;;8.60;4.20;;;;;;;31.85;25.27;100656.14;220817;1264;140283;-88
2023/06/10 14:35:32;;;;;;;7.00;3.80;;;;;;;31.83;25.29;100647.13;221230;1267;138110;-91
2023/06/10 14:40:32;;;;;;;7.80;3.70;;;;;;;31.73;25.03;100644.75;221174;1264;140123;-90
2023/06/10 14:45:33;;;;;;;8.60;3.90;;;;;;;31.59;24.54;100657.29;221550;1265;138048;-91
2023/06/10 14:50:37;;;;;;;10.30;5.20;;;;;;;31.51;25.03;100655.78;221054;1266;139801;-92
2023/06/10 14:55:38;;;;;;;;;;;;;;;31.31;24.56;100651.40;221279;1268;138530;-90
2023/06/10 15:00:38;;;;;;;8.30;4.10;;;;;;;30.74;23.89;100654.08;220937;1266;127199;-88
2023/06/10 15:05:38;;;;;;;7.30;3.80;;;;;;;30.33;24.16;100662.05;221537;1266;138465;-89
2023/06/10 15:10:40;;;;;;;7.50;3.60;;;;;;;29.96;24.50;100668.38;220876;1266;140054;-90
2023/06/10 15:15:40;;;;;;;9.10;3.70;;;;;;;29.86;24.75;100662.67;221512;1266;138019;-89
2023/06/10 15:20:40;;;;;;;6.60;2.70;;;;;;;29.76;24.86;100666.97;220867;1266;139857;-90
2023/06/10 15:25:41;;;;;;;9.70;3.40;;;;;;;29.67;24.84;100666.53;221661;1266;138105;-88
2023/06/10 15:30:42;;;;;;;16.00;4.00;;;;;;;29.44;24.80;100665.40;220970;1266;139822;-90
2023/06/10 15:35:42;;;;;;;7.10;3.10;;;;;;;29.40;24.70;100667.92;221429;1264;138501;-88
2023/06/10 15:40:43;;;;;;;6.80;3.30;;;;;;;29.10;24.41;100669.53;220906;1265;140535;-90
2023/06/10 15:45:43;;;;;;;7.30;3.30;;;;;;;28.84;24.15;100669.80;221284;1267;138760;-85
2023/06/10 15:50:45;;;;;;;9.10;3.70;;;;;;;28.44;23.92;100669.77;220804;1264;139921;-88
2023/06/10 15:55:45;;;;;;;9.20;3.20;;;;;;;28.30;24.64;100665.42;221099;1267;138011;-89
2023/06/10 16:00:45;;;;;;;9.20;3.60;;;;;;;28.10;24.38;100674.44;220733;1264;143117;-88
2023/06/10 16:05:46;;;;;;;7.40;3.20;;;;;;;27.76;23.80;100677.16;221050;1264;138762;-88
2023/06/10 16:10:46;;;;;;;6.80;3.20;;;;;;;27.45;24.00;100680.11;220940;1267;140496;-88
2023/06/10 16:15:47;;;;;;;6.40;3.10;;;;;;;27.19;23.92;100675.14;221275;1264;137817;-87
2023/06/10 16:20:47;;;;;;;7.80;3.30;;;;;;;26.91;23.86;100674.33;220633;1264;140094;-88
2023/06/10 16:25:48;;;;;;;8.40;3.00;;;;;;;26.73;24.72;100671.79;221327;1268;138347;-89
2023/06/10 16:30:48;;;;;;;13.80;3.00;;;;;;;26.55;24.61;100677.23;220623;1264;139859;-88
2023/06/10 16:35:48;;;;;;;9.60;3.00;;;;;;;26.36;25.30;100680.52;221148;1264;138280;-86
2023/06/10 16:40:49;;;;;;;8.00;3.50;;;;;;;26.12;25.03;100685.09;220801;1264;140548;-88
2023/06/10 16:45:49;;;;;;;5.80;3.20;;;;;;;25.96;25.69;100683.82;221278;1267;137898;-86
2023/06/10 16:50:51;;;;;;;12.00;4.30;;;;;;;25.74;25.52;100693.92;220514;1264;140316;-86
2023/06/10 16:55:51;;;;;;;7.60;3.50;;;;;;;25.50;25.20;100697.79;220856;1266;139199;-87
2023/06/10 17:00:52;;;;;;;7.80;3.00;;;;;;;25.28;24.98;100701.09;220802;1263;139758;-89
2023/06/10 17:05:52;;;;;;;7.40;3.40;;;;;;;25.14;25.51;100700.54;221278;1267;138324;-88
2023/06/10 17:10:53;;;;;;;10.70;3.50;;;;;;;24.99;25.69;100711.48;220891;1264;140613;-88
2023/06/10 17:15:53;;;;;;;9.50;3.30;;;;;;;24.85;25.21;100711.45;221172;1268;137723;-89
2023/06/10 17:20:54;;;;;;;8.90;3.10;;;;;;;24.70;25.61;100721.74;220614;1264;140617;-87
2023/06/10 17:25:54;;;;;;;8.20;3.00;;;;;;;24.54;25.81;100720.22;221146;1266;138171;-90
2023/06/10 17:30:55;;;;;;;6.80;2.90;;;;;;;24.40;26.13;100729.03;220669;1267;140232;-88
2023/06/10 17:35:55;;;;;;;8.10;3.00;;;;;;;24.27;26.77;100735.49;221190;1267;138680;-87
2023/06/10 17:40:56;;;;;;;6.70;2.90;;;;;;;24.12;26.64;100742.63;220683;1266;140518;-85
2023/06/10 17:45:57;;;;;;;7.60;2.80;;;;;;;23.97;26.31;100751.14;221179;1269;138879;-87
2023/06/10 17:50:58;;;;;;;6.10;2.40;;;;;;;23.83;25.91;100758.09;220359;1268;139670;-88
2023/06/10 17:55:58;;;;;;;6.20;2.40;;;;;;;23.69;26.15;100758.45;221259;1267;138090;-85
2023/06/10 18:00:59;;;;;;;7.70;2.70;;;;;;;23.57;26.41;100759.55;220486;1264;140488;-87
2023/06/10 18:05:59;;;;;;;5.10;2.30;;;;;;;23.41;27.00;100757.09;221055;1267;138426;-87
2023/06/10 18:11:01;;;;;;;7.70;2.50;;;;;;;23.27;27.33;100758.73;220506;1264;140541;-86
2023/06/10 18:16:02;;;;;;;9.80;2.90;;;;;;;23.12;27.38;100762.61;221289;1268;97909;-89
2023/06/10 18:21:02;;;;;;;6.10;2.30;;;;;;;22.98;27.70;100770.30;220706;1264;140001;-88
2023/06/10 18:26:03;;;;;;;7.40;2.40;;;;;;;22.85;28.15;100773.14;220946;1265;137984;-87
2023/06/10 18:31:03;;;;;;;5.50;2.40;;;;;;;22.72;28.03;100784.11;220393;1268;140026;-89
2023/06/10 18:36:04;;;;;;;6.70;2.50;;;;;;;22.60;28.69;100787.31;220792;1268;215354;-89
2023/06/10 18:41:05;;;;;;;7.00;2.10;;;;;;;22.45;29.04;100791.53;220392;1266;142833;-88
2023/06/10 18:46:05;;;;;;;5.30;2.10;;;;;;;22.32;29.54;100801.95;220890;1264;97927;-88
2023/06/10 18:51:05;;;;;;;6.20;2.70;;;;;;;22.19;30.21;100808.92;220823;1267;140507;-88
2023/06/10 18:56:06;;;;;;;6.20;2.60;;;;;;;22.05;30.92;100813.37;220997;1268;139982;-87
2023/06/10 19:01:07;;;;;;;9.00;2.50;;;;;;;21.89;31.13;100818.87;220322;1264;140496;-87
2023/06/10 19:06:07;;;;;;;5.20;2.20;;;;;;;21.71;31.32;100823.55;221110;1268;138543;-87
2023/06/10 19:11:09;;;;;;;5.80;2.00;;;;;;;21.51;31.27;100831.67;220532;1267;140355;-87
2023/06/10 19:16:09;;;;;;;6.00;2.60;;;;;;;21.36;31.81;100840.65;221027;1264;97962;-87
2023/06/10 19:21:09;;;;;;;7.70;2.10;;;;;;;21.17;31.71;100846.48;220537;1266;140233;-88
2023/06/10 19:26:10;;;;;;;6.10;2.60;;;;;;;21.01;32.29;100849.30;220988;1264;138337;-87
2023/06/10 19:31:10;;;;;;;5.80;2.30;;;;;;;20.81;32.42;100859.94;220602;1264;140130;-87
2023/06/10 19:36:11;;;;;;;6.90;2.50;;;;;;;20.61;32.91;100860.48;221067;1264;137988;-87
2023/06/10 19:41:11;;;;;;;9.00;2.60;;;;;;;20.45;33.93;100864.92;220583;1264;139662;-87
2023/06/10 19:46:12;;;;;;;11.80;2.60;;;;;;;20.29;34.75;100868.95;221252;1267;99169;-88
2023/06/10 19:51:12;;;;;;;6.70;2.50;;;;;;;20.12;35.84;100865.80;220561;1264;140015;-87
2023/06/10 19:56:18;;;;;;;9.30;2.80;;;;;;;20.00;36.77;100868.73;220966;1264;138023;-88
2023/06/10 20:01:19;;;;;;;6.60;2.50;;;;;;;19.87;37.66;100874.20;220489;1264;141051;-88
2023/06/10 20:06:19;;;;;;;6.20;2.40;;;;;;;19.75;38.30;100876.66;221177;1264;138592;-87
2023/06/10 20:11:21;;;;;;;10.10;2.70;;;;;;;19.61;38.94;100880.20;220386;1264;141066;-87
2023/06/10 20:16:21;;;;;;;7.80;2.40;;;;;;;19.48;39.69;100884.73;221150;1266;98620;-87
2023/06/10 20:21:21;;;;;;;5.80;2.60;;;;;;;19.36;40.17;100891.25;220379;1264;140702;-89
2023/06/10 20:26:23;;;;;;;5.90;2.10;;;;;;;19.25;40.60;100894.40;221001;1264;137796;-87
2023/06/10 20:31:26;;;;;;;7.20;2.40;;;;;;;19.14;41.11;100892.31;220074;1264;141486;-88
2023/06/10 20:36:26;;;;;;;7.00;2.30;;;;;;;19.03;41.74;100896.81;221043;1263;138060;-87
2023/06/10 20:41:26;;;;;;;7.00;2.30;;;;;;;18.94;42.15;100900.95;220754;1264;141506;-87
2023/06/10 20:46:27;;;;;;;7.50;2.70;;;;;;;18.83;42.82;100902.45;221152;1267;97909;-87
2023/06/10 20:51:27;;;;;;;8.20;2.60;;;;;;;18.69;43.47;100905.85;220482;1264;139448;-87
2023/06/10 20:56:28;;;;;;;6.40;2.20;;;;;;;18.54;43.85;100906.78;221094;1264;138761;-88
2023/06/10 21:01:28;;;;;;;9.20;2.70;;;;;;;18.41;44.53;100909.02;220751;1264;139093;-87
2023/06/10 21:06:29;;;;;;;8.20;2.60;;;;;;;18.26;45.05;100911.51;221324;1264;138092;-87
2023/06/10 21:11:29;;;;;;;7.60;2.80;;;;;;;18.12;45.38;100915.09;220605;1264;139847;-87
2023/06/10 21:16:30;;;;;;;9.80;2.70;;;;;;;17.99;46.01;100910.70;221346;1264;97626;-88
2023/06/10 21:21:30;;;;;;;8.60;2.20;;;;;;;17.90;46.39;100907.80;220711;1264;140710;-87
2023/06/10 21:26:32;;;;;;;5.60;2.30;;;;;;;17.79;46.43;100910.05;221292;1264;138621;-87
2023/06/10 21:31:32;;;;;;;11.20;2.80;;;;;;;17.68;46.78;100910.26;220673;1267;141361;-87
2023/06/10 21:36:33;;;;;;;7.30;2.50;;;;;;;17.59;47.09;100913.92;221185;1264;138537;-86
2023/06/10 21:41:33;;;;;;;4.20;2.00;;;;;;;17.50;47.55;100918.30;220832;1267;139911;-88
2023/06/10 21:46:33;;;;;;;6.00;2.10;;;;;;;17.40;47.85;100917.27;221341;1264;97946;-87
2023/06/10 21:51:34;;;;;;;8.10;2.20;;;;;;;17.30;48.21;100916.63;220853;1264;229967;-87
2023/06/10 21:56:34;;;;;;;6.80;2.10;;;;;;;17.18;48.80;100913.48;221338;1264;137809;-88
2023/06/10 22:01:35;;;;;;;8.00;2.60;;;;;;;17.05;49.28;100911.34;220816;1263;140560;-88
2023/06/10 22:06:36;;;;;;;7.10;2.30;;;;;;;16.93;49.70;100905.71;221094;1264;138369;-87
2023/06/10 22:11:36;;;;;;;7.60;2.80;;;;;;;16.83;50.35;100899.20;220698;1264;140037;-88
2023/06/10 22:16:37;;;;;;;5.80;3.00;;;;;;;16.75;50.43;100898.53;221326;1263;97885;-87
2023/06/10 22:21:37;;;;;;;7.20;2.10;;;;;;;16.67;50.99;100903.20;220378;1264;140121;-87
2023/06/10 22:26:37;;;;;;;12.20;2.60;;;;;;;16.59;51.51;100899.58;221495;1264;137943;-88
2023/06/10 22:31:38;;;;;;;6.80;2.40;;;;;;;16.49;51.72;100898.60;220881;1264;140384;-87
2023/06/10 22:36:38;;;;;;;6.00;2.40;;;;;;;16.42;52.07;100897.92;221284;1264;139205;-89
2023/06/10 22:41:39;;;;;;;4.00;2.20;;;;;;;16.36;52.64;100898.08;220829;1264;140786;-87